createdAt,value
2022-12-27T00:02:13.101Z,100028.72
2022-12-27T00:06:17.944Z,100037.50
2022-12-27T00:10:21.171Z,100022.56
2022-12-27T00:14:25.531Z,100039.28
2022-12-27T00:22:31.862Z,100042.81
2022-12-27T00:26:36.361Z,100051.59
2022-12-27T00:30:40.729Z,100064.81
2022-12-27T00:34:43.724Z,100050.72
2022-12-27T00:38:47.229Z,100063.03
2022-12-27T00:42:50.248Z,100078.00
2022-12-27T00:46:54.575Z,100070.06
2022-12-27T00:51:02.433Z,100078.88
2022-12-27T00:55:06.242Z,100090.28
2022-12-27T00:59:12.227Z,100091.16
2022-12-27T01:03:18.722Z,100107.88
2022-12-27T01:07:21.937Z,100101.69
2022-12-27T01:11:26.152Z,100115.72
2022-12-27T01:15:29.708Z,100122.75
2022-12-27T01:19:36.295Z,100109.53
2022-12-27T01:23:39.677Z,100126.22
2022-12-27T01:27:43.140Z,100135.91
2022-12-27T01:31:46.875Z,100125.34
2022-12-27T01:35:51.445Z,100135.88
2022-12-27T01:39:54.441Z,100136.72
2022-12-27T01:43:57.381Z,100131.44
2022-12-27T01:48:05.739Z,100140.22
2022-12-27T01:52:13.273Z,100134.88
2022-12-27T01:56:20.390Z,100134.88
2022-12-27T02:00:23.812Z,100134.88
2022-12-27T02:04:32.021Z,100141.88
2022-12-27T02:08:44.833Z,100153.25
2022-12-27T02:12:48.051Z,100157.63
2022-12-27T02:16:51.530Z,100169.91
2022-12-27T02:21:27.850Z,100172.53
2022-12-27T02:25:54.363Z,100187.44
2022-12-27T02:30:03.004Z,100204.13
2022-12-27T02:34:12.770Z,100210.22
2022-12-27T02:38:20.711Z,100208.50
2022-12-27T02:42:41.224Z,100219.00
2022-12-27T02:47:04.298Z,100226.88
2022-12-27T02:51:39.333Z,100249.69
2022-12-27T02:56:13.185Z,100259.34
2022-12-27T03:00:36.444Z,100268.09
2022-12-27T03:04:55.263Z,100268.09
2022-12-27T03:09:08.502Z,100264.56
2022-12-27T03:13:38.106Z,100268.06
2022-12-27T03:17:46.928Z,100280.31
2022-12-27T03:22:09.147Z,100261.78
2022-12-27T03:26:15.683Z,100257.34
2022-12-27T03:30:48.012Z,100273.97
2022-12-27T03:34:56.013Z,100287.13
2022-12-27T03:39:06.874Z,100299.38
2022-12-27T03:43:14.852Z,100308.09
2022-12-27T03:47:25.766Z,100301.88
2022-12-27T03:51:31.157Z,100309.69
2022-12-27T03:55:35.837Z,100313.16
2022-12-27T03:59:39.221Z,100316.59
2022-12-27T04:03:42.161Z,100315.66
2022-12-27T04:08:02.675Z,100321.81
2022-12-27T04:12:25.287Z,100328.75
2022-12-27T04:16:45.629Z,100323.50
2022-12-27T04:21:06.088Z,100343.63
2022-12-27T04:25:27.653Z,100347.94
2022-12-27T04:29:50.225Z,100358.41
2022-12-27T04:34:10.750Z,100363.59
2022-12-27T04:38:14.084Z,100374.06
2022-12-27T04:42:34.468Z,100400.34
2022-12-27T04:46:55.836Z,100410.75
2022-12-27T04:51:16.549Z,100435.25
2022-12-27T04:55:23.416Z,100443.03
2022-12-27T04:59:43.619Z,100445.66
2022-12-27T05:03:51.910Z,100466.63
2022-12-27T05:08:13.017Z,100477.16
2022-12-27T05:12:33.455Z,100480.72
2022-12-27T05:16:38.567Z,100487.72
2022-12-27T05:20:42.877Z,100499.97
2022-12-27T05:25:04.197Z,100509.63
2022-12-27T05:29:08.476Z,100519.22
2022-12-27T05:33:11.649Z,100520.94
2022-12-27T05:37:15.964Z,100518.28
2022-12-27T05:41:19.656Z,100515.66
2022-12-27T05:45:22.606Z,100515.66
2022-12-27T05:49:25.630Z,100524.41
2022-12-27T05:53:29.957Z,100525.19
2022-12-27T05:57:33.077Z,100527.75
2022-12-27T06:01:36.144Z,100543.41
2022-12-27T06:05:39.161Z,100562.69
2022-12-27T06:09:43.777Z,100572.28
2022-12-27T06:13:51.444Z,100588.84
2022-12-27T06:17:54.811Z,100613.38
2022-12-27T06:21:57.763Z,100635.94
2022-12-27T06:26:05.746Z,100655.56
2022-12-27T06:30:12.102Z,100669.31
2022-12-27T06:34:15.079Z,100689.06
2022-12-27T06:38:18.196Z,100696.78
2022-12-27T06:42:22.669Z,100703.53
2022-12-27T06:46:25.714Z,100718.19
2022-12-27T06:50:28.737Z,100730.34
2022-12-27T06:54:31.842Z,100732.88
2022-12-27T06:58:36.723Z,100751.84
2022-12-27T07:02:39.854Z,100765.66
2022-12-27T07:06:43.245Z,100773.38
2022-12-27T07:10:46.147Z,100789.03
2022-12-27T07:14:50.431Z,100801.06
2022-12-27T07:18:55.941Z,100818.56
2022-12-27T07:23:00.051Z,100830.72
2022-12-27T07:27:04.929Z,100835.00
2022-12-27T07:31:10.780Z,100840.03
2022-12-27T07:35:13.683Z,100859.16
2022-12-27T07:39:16.658Z,100873.94
2022-12-27T07:43:19.885Z,100876.34
2022-12-27T07:47:24.463Z,100883.19
2022-12-27T07:51:28.789Z,100894.31
2022-12-27T07:55:31.816Z,100916.06
2022-12-27T07:59:34.897Z,100930.47
2022-12-27T08:03:40.048Z,100935.47
2022-12-27T08:07:43.240Z,100946.72
2022-12-27T08:11:46.677Z,100950.91
2022-12-27T08:15:52.963Z,100949.75
2022-12-27T08:19:57.433Z,100943.44
2022-12-27T08:24:00.470Z,100964.19
2022-12-27T08:28:04.438Z,100958.91
2022-12-27T08:32:07.437Z,100966.53
2022-12-27T08:36:53.998Z,100975.84
2022-12-27T08:40:41.333Z,100984.38
2022-12-27T08:44:44.366Z,100995.53
2022-12-27T08:48:48.734Z,100996.41
2022-12-27T08:52:53.060Z,100991.19
2022-12-27T08:56:55.974Z,101002.66
2022-12-27T09:01:05.842Z,101010.47
2022-12-27T09:05:09.358Z,101018.50
2022-12-27T09:09:14.560Z,101020.31
2022-12-27T09:13:18.435Z,101017.59
2022-12-27T09:17:21.558Z,101032.47
2022-12-27T09:21:26.773Z,101048.31
2022-12-27T09:25:31.072Z,101038.75
2022-12-27T09:29:34.396Z,101043.38
2022-12-27T09:33:37.724Z,101045.00
2022-12-27T09:37:40.651Z,101042.38
2022-12-27T09:46:22.913Z,101047.81
2022-12-27T09:50:31.578Z,101031.41
2022-12-27T09:54:41.725Z,101036.72
2022-12-27T09:58:50.958Z,101041.00
2022-12-27T10:02:54.215Z,101037.53
2022-12-27T10:07:12.646Z,101035.03
2022-12-27T10:11:39.410Z,101031.66
2022-12-27T10:15:50.344Z,101025.59
2022-12-27T10:20:07.661Z,101039.66
2022-12-27T10:24:20.004Z,101036.22
2022-12-27T10:28:28.981Z,101034.53
2022-12-27T10:32:33.611Z,101038.94
2022-12-27T10:36:36.952Z,101046.81
2022-12-27T10:40:50.175Z,101038.09
2022-12-27T10:44:53.327Z,101033.84
2022-12-27T10:53:42.127Z,101020.09
2022-12-27T10:57:45.552Z,101020.91
2022-12-27T11:01:51.771Z,101023.75
2022-12-27T11:06:04.728Z,101011.91
2022-12-27T11:10:16.577Z,101015.50
2022-12-27T11:14:21.788Z,101013.06
2022-12-27T11:18:24.952Z,101004.34
2022-12-27T11:22:29.448Z,101021.16
2022-12-27T11:26:41.212Z,101015.88
2022-12-27T11:30:54.988Z,101007.19
2022-12-27T11:34:58.423Z,100995.88
2022-12-27T11:39:02.919Z,100995.94
2022-12-27T11:43:10.724Z,100984.50
2022-12-27T11:47:22.352Z,100973.16
2022-12-27T11:51:49.390Z,100973.25
2022-12-27T11:56:12.883Z,100962.72
2022-12-27T12:00:20.477Z,100961.84
2022-12-27T12:04:51.937Z,100957.56
2022-12-27T12:09:29.240Z,100957.75
2022-12-27T12:14:06.161Z,100945.81
2022-12-27T12:18:23.814Z,100946.16
2022-12-27T12:22:43.717Z,100943.63
2022-12-27T12:26:56.170Z,100946.38
2022-12-27T12:31:16.180Z,100937.50
2022-12-27T12:35:33.356Z,100940.13
2022-12-27T12:39:55.136Z,100933.03
2022-12-27T12:44:48.408Z,100924.31
2022-12-27T12:49:11.358Z,100927.00
2022-12-27T12:53:33.655Z,100933.19
2022-12-27T12:57:50.353Z,100925.22
2022-12-27T13:02:13.251Z,100926.91
2022-12-27T13:06:44.181Z,100929.69
2022-12-27T13:11:18.537Z,100928.75
2022-12-27T13:15:32.686Z,100927.88
2022-12-27T13:19:48.126Z,100932.19
2022-12-27T13:24:07.342Z,100925.88
2022-12-27T13:28:26.670Z,100927.41
2022-12-27T13:32:43.133Z,100917.63
2022-12-27T13:37:07.632Z,100919.16
2022-12-27T13:41:42.086Z,100920.75
2022-12-27T13:45:58.679Z,100918.84
2022-12-27T13:50:24.480Z,100914.53
2022-12-27T13:55:00.698Z,100918.78
2022-12-27T13:59:23.893Z,100922.13
2022-12-27T14:04:09.008Z,100937.84
2022-12-27T14:08:22.967Z,100943.09
2022-12-27T14:12:59.476Z,100944.78
2022-12-27T14:17:19.229Z,100945.78
2022-12-27T14:21:56.461Z,100951.13
2022-12-27T14:26:25.944Z,100959.75
2022-12-27T14:30:56.467Z,100957.94
2022-12-27T14:35:33.421Z,100961.25
2022-12-27T14:40:09.616Z,100961.91
2022-12-27T14:45:06.199Z,100963.47
2022-12-27T14:49:50.885Z,100964.06
2022-12-27T14:54:47.332Z,100971.75
2022-12-27T14:59:05.330Z,100985.69
2022-12-27T15:03:35.810Z,100984.63
2022-12-27T15:08:04.889Z,100992.50
2022-12-27T15:12:19.158Z,100990.72
2022-12-27T15:16:36.630Z,101001.09
2022-12-27T15:21:05.707Z,101000.97
2022-12-27T15:25:20.660Z,101014.06
2022-12-27T15:29:33.038Z,101005.28
2022-12-27T15:33:47.419Z,101020.06
2022-12-27T15:37:59.201Z,101020.88
2022-12-27T15:42:09.834Z,101020.06
2022-12-27T15:46:32.468Z,101021.78
2022-12-27T15:50:51.621Z,101021.81
2022-12-27T15:55:14.669Z,101023.66
2022-12-27T15:59:42.521Z,101017.63
2022-12-27T16:03:47.615Z,101011.56
2022-12-27T16:07:53.647Z,101016.63
2022-12-27T16:12:03.219Z,101020.06
2022-12-27T16:16:08.219Z,101024.44
2022-12-27T16:20:19.464Z,101032.28
2022-12-27T16:24:28.107Z,101033.25
2022-12-27T16:28:33.043Z,101032.41
2022-12-27T16:32:36.311Z,101046.38
2022-12-27T16:36:47.183Z,101046.38
2022-12-27T16:40:56.664Z,101056.66
2022-12-27T16:45:05.757Z,101060.09
2022-12-27T16:49:32.557Z,101059.09
2022-12-27T16:53:51.621Z,101058.03
2022-12-27T16:58:33.126Z,101056.03
2022-12-27T17:02:41.944Z,101051.34
2022-12-27T17:06:57.825Z,101050.22
2022-12-27T17:11:19.692Z,101054.44
2022-12-27T17:15:25.280Z,101057.00
2022-12-27T17:19:34.977Z,101062.25
2022-12-27T17:23:41.422Z,101061.28
2022-12-27T17:28:01.744Z,101061.28
2022-12-27T17:32:18.371Z,101055.13
2022-12-27T17:36:37.765Z,101053.31
2022-12-27T17:40:47.730Z,101048.88
2022-12-27T17:45:05.441Z,101027.06
2022-12-27T17:49:11.533Z,101030.38
2022-12-27T17:53:37.964Z,101048.69
2022-12-27T17:57:55.886Z,101050.16
2022-12-27T18:02:04.767Z,101044.72
2022-12-27T18:06:09.695Z,101046.38
2022-12-27T18:10:21.393Z,101044.66
2022-12-27T18:14:24.505Z,101048.09
2022-12-27T18:18:30.284Z,101043.72
2022-12-27T18:22:34.716Z,101041.69
2022-12-27T18:26:40.994Z,101035.97
2022-12-27T18:30:49.762Z,101021.81
2022-12-27T18:34:55.683Z,101023.22
2022-12-27T18:39:02.882Z,101024.75
2022-12-27T18:43:15.667Z,101020.78
2022-12-27T18:47:22.356Z,101011.66
2022-12-27T18:51:37.962Z,101000.69
2022-12-27T18:55:57.928Z,100980.16
2022-12-27T19:00:03.847Z,100986.19
2022-12-27T19:04:22.877Z,100993.16
2022-12-27T19:08:28.964Z,100999.16
2022-12-27T19:12:36.567Z,101000.06
2022-12-27T19:16:39.828Z,100993.03
2022-12-27T19:20:43.547Z,101005.22
2022-12-27T19:24:46.628Z,101005.22
2022-12-27T19:29:01.916Z,101024.22
2022-12-27T19:33:10.861Z,101030.25
2022-12-27T19:37:14.415Z,101036.25
2022-12-27T19:41:17.450Z,101035.81
2022-12-27T19:45:21.936Z,101045.38
2022-12-27T19:49:42.280Z,101042.94
2022-12-27T19:53:57.425Z,101053.28
2022-12-27T19:58:00.836Z,101060.03
2022-12-27T20:02:05.445Z,101072.13
2022-12-27T20:06:14.530Z,101064.16
2022-12-27T20:10:21.908Z,101066.75
2022-12-27T20:14:24.951Z,101066.91
2022-12-27T20:18:29.405Z,101066.75
2022-12-27T20:22:32.620Z,101074.38
2022-12-27T20:26:35.607Z,101084.75
2022-12-27T20:30:39.169Z,101079.59
2022-12-27T20:34:43.520Z,101078.56
2022-12-27T20:38:46.568Z,101076.66
2022-12-27T20:42:50.155Z,101090.38
2022-12-27T20:46:53.149Z,101084.44
2022-12-27T20:50:57.560Z,101078.44
2022-12-27T20:55:00.550Z,101076.81
2022-12-27T20:59:03.795Z,101073.22
2022-12-27T21:03:06.903Z,101083.63
2022-12-27T21:07:11.659Z,101077.31
2022-12-27T21:11:16.999Z,101076.38
2022-12-27T21:15:20.093Z,101078.09
2022-12-27T21:19:23.287Z,101070.88
2022-12-27T21:23:27.923Z,101069.78
2022-12-27T21:27:30.984Z,101068.69
2022-12-27T21:31:35.914Z,101064.97
2022-12-27T21:35:38.949Z,101059.34
2022-12-27T21:39:43.452Z,101058.28
2022-12-27T21:43:47.731Z,101047.78
2022-12-27T21:47:52.560Z,101059.03
2022-12-27T21:51:55.801Z,101052.88
2022-12-27T21:56:00.547Z,101050.09
2022-12-27T22:00:04.411Z,101045.59
2022-12-27T22:04:07.911Z,101053.09
2022-12-27T22:08:11.315Z,101054.75
2022-12-27T22:12:15.905Z,101050.44
2022-12-27T22:16:24.773Z,101043.28
2022-12-27T22:20:28.074Z,101044.78
2022-12-27T22:24:31.140Z,101038.38
2022-12-27T22:28:35.729Z,101035.34
2022-12-27T22:32:38.776Z,101036.00
2022-12-27T22:36:41.794Z,101039.16
2022-12-27T22:40:46.993Z,101039.44
2022-12-27T22:44:51.810Z,101035.19
2022-12-27T22:48:57.003Z,101020.78
2022-12-27T22:53:00.049Z,101014.44
2022-12-27T22:57:03.212Z,101025.50
2022-12-27T23:01:13.599Z,101029.59
2022-12-27T23:05:16.995Z,101023.41
2022-12-27T23:09:20.045Z,101008.63
2022-12-27T23:13:25.047Z,101003.41
2022-12-27T23:17:29.695Z,100997.19
2022-12-27T23:21:32.837Z,100993.56
2022-12-27T23:25:36.848Z,101004.41
2022-12-27T23:29:39.954Z,101009.00
2022-12-27T23:33:44.892Z,101000.06
2022-12-27T23:37:48.001Z,100997.25
2022-12-27T23:41:51.031Z,100990.31
2022-12-27T23:45:54.040Z,100979.09
2022-12-27T23:49:58.446Z,100971.34
2022-12-27T23:54:01.564Z,100983.81
2022-12-27T23:58:04.589Z,100984.84
